createdAt,value
2023-04-16T00:03:06.501Z,100898.44
2023-04-16T00:08:08.567Z,100897.59
2023-04-16T00:13:10.584Z,100903.63
2023-04-16T00:18:12.550Z,100909.66
2023-04-16T00:23:14.466Z,100905.25
2023-04-16T00:28:16.364Z,100907.88
2023-04-16T00:33:18.242Z,100912.13
2023-04-16T00:38:20.128Z,100910.31
2023-04-16T00:43:28.212Z,100907.66
2023-04-16T00:48:30.159Z,100914.56
2023-04-16T00:53:32.035Z,100918.88
2023-04-16T00:58:34.741Z,100910.09
2023-04-16T01:03:40.467Z,100907.31
2023-04-16T01:08:42.341Z,100910.72
2023-04-16T01:13:44.307Z,100907.16
2023-04-16T01:18:46.239Z,100908.88
2023-04-16T01:23:48.151Z,100901.91
2023-04-16T01:28:50.103Z,100905.34
2023-04-16T01:33:52.048Z,100899.19
2023-04-16T01:38:53.944Z,100907.94
2023-04-16T01:43:55.837Z,100909.63
2023-04-16T01:49:01.189Z,100907.84
2023-04-16T01:54:03.198Z,100899.13
2023-04-16T01:59:05.113Z,100913.88
2023-04-16T02:04:07.073Z,100903.34
2023-04-16T02:09:09.112Z,100906.78
2023-04-16T02:14:11.103Z,100906.78
2023-04-16T02:19:13.003Z,100908.56
2023-04-16T02:24:15.130Z,100915.44
2023-04-16T02:29:17.065Z,100902.38
2023-04-16T02:34:18.937Z,100912.72
2023-04-16T02:39:20.843Z,100909.13
2023-04-16T02:44:22.723Z,100918.59
2023-04-16T02:49:24.552Z,100907.31
2023-04-16T02:54:26.450Z,100912.59
2023-04-16T02:59:28.400Z,100916.25
2023-04-16T03:04:30.356Z,100917.97
2023-04-16T03:09:32.389Z,100930.19
2023-04-16T03:14:34.431Z,100930.22
2023-04-16T03:19:36.295Z,100931.25
2023-04-16T03:24:38.278Z,100920.09
2023-04-16T03:29:40.174Z,100925.66
2023-04-16T03:34:42.193Z,100926.19
2023-04-16T03:39:44.204Z,100915.09
2023-04-16T03:44:46.036Z,100912.50
2023-04-16T03:49:47.995Z,100912.81
2023-04-16T03:54:50.043Z,100911.94
2023-04-16T03:59:52.060Z,100905.75
2023-04-16T04:04:54.062Z,100905.16
2023-04-16T04:09:56.172Z,100901.50
2023-04-16T04:14:58.099Z,100903.53
2023-04-16T04:20:01.636Z,100903.81
2023-04-16T04:25:07.050Z,100902.22
2023-04-16T04:30:09.666Z,100904.94
2023-04-16T04:35:11.488Z,100903.22
2023-04-16T04:40:13.370Z,100904.97
2023-04-16T04:45:16.625Z,100909.31
2023-04-16T04:50:18.754Z,100911.97
2023-04-16T04:55:20.744Z,100908.44
2023-04-16T05:00:22.590Z,100905.84
2023-04-16T05:05:24.542Z,100915.47
2023-04-16T05:10:27.078Z,100910.16
2023-04-16T05:15:28.938Z,100907.44
2023-04-16T05:20:30.976Z,100896.84
2023-04-16T05:25:32.804Z,100907.13
2023-04-16T05:30:34.677Z,100900.00
2023-04-16T05:35:36.580Z,100885.94
2023-04-16T05:40:38.547Z,100886.53
2023-04-16T05:45:40.467Z,100879.97
2023-04-16T05:50:42.629Z,100871.50
2023-04-16T05:55:44.644Z,100860.88
2023-04-16T06:00:46.602Z,100856.84
2023-04-16T06:05:48.558Z,100841.84
2023-04-16T06:10:50.474Z,100856.63
2023-04-16T06:15:52.344Z,100848.50
2023-04-16T06:20:54.312Z,100842.28
2023-04-16T06:25:56.116Z,100829.66
2023-04-16T06:30:57.980Z,100833.47
2023-04-16T06:35:59.864Z,100847.41
2023-04-16T06:41:01.790Z,100833.81
2023-04-16T06:46:03.519Z,100827.56
2023-04-16T06:51:05.431Z,100807.72
2023-04-16T06:56:07.880Z,100806.25
2023-04-16T07:01:09.929Z,100805.75
2023-04-16T07:06:11.980Z,100824.31
2023-04-16T07:11:14.294Z,100825.03
2023-04-16T07:16:16.370Z,100838.25
2023-04-16T07:21:18.339Z,100822.31
2023-04-16T07:26:20.340Z,100805.66
2023-04-16T07:31:22.313Z,100825.13
2023-04-16T07:36:24.335Z,100823.06
2023-04-16T07:41:26.055Z,100828.94
2023-04-16T07:46:36.068Z,100834.75
2023-04-16T07:51:45.361Z,100828.78
2023-04-16T07:56:47.334Z,100829.72
2023-04-16T08:01:49.680Z,100826.38
2023-04-16T08:06:51.629Z,100828.50
2023-04-16T08:11:53.444Z,100824.69
2023-04-16T08:16:55.378Z,100819.22
2023-04-16T08:21:57.392Z,100823.19
2023-04-16T08:27:08.145Z,100818.84
2023-04-16T08:32:19.506Z,100813.38
2023-04-16T08:37:21.479Z,100809.88
2023-04-16T08:42:53.787Z,100822.41
2023-04-16T08:47:55.664Z,100801.50
2023-04-16T08:52:59.352Z,100797.75
2023-04-16T08:58:01.574Z,100801.47
2023-04-16T09:03:03.746Z,100793.94
2023-04-16T09:08:06.402Z,100790.44
2023-04-16T09:13:08.044Z,100790.44
2023-04-16T09:18:10.481Z,100777.47
2023-04-16T09:23:12.177Z,100763.84
2023-04-16T09:28:27.153Z,100765.94
2023-04-16T09:33:29.060Z,100773.78
2023-04-16T09:38:46.464Z,100772.66
2023-04-16T09:43:59.293Z,100768.13
2023-04-16T09:49:13.391Z,100762.38
2023-04-16T09:54:15.298Z,100759.06
2023-04-16T09:59:21.169Z,100771.41
2023-04-16T10:04:23.108Z,100760.47
2023-04-16T10:09:24.997Z,100748.88
2023-04-16T10:14:26.995Z,100745.75
2023-04-16T10:19:28.952Z,100743.00
2023-04-16T10:24:31.533Z,100742.84
2023-04-16T10:29:33.263Z,100742.41
2023-04-16T10:34:35.188Z,100723.81
2023-04-16T10:39:37.103Z,100728.13
2023-04-16T10:44:45.192Z,100729.22
2023-04-16T10:49:48.030Z,100716.59
2023-04-16T10:54:49.937Z,100733.53
2023-04-16T10:59:51.936Z,100728.34
2023-04-16T11:04:54.650Z,100721.09
2023-04-16T11:09:57.882Z,100719.47
2023-04-16T11:15:00.497Z,100709.91
2023-04-16T11:20:02.568Z,100720.25
2023-04-16T11:25:05.880Z,100708.00
2023-04-16T11:30:09.429Z,100696.34
2023-04-16T11:35:14.879Z,100689.06
2023-04-16T11:40:16.856Z,100695.09
2023-04-16T11:45:18.776Z,100691.81
2023-04-16T11:50:29.853Z,100679.13
2023-04-16T11:55:31.797Z,100692.66
2023-04-16T12:00:35.497Z,100668.13
2023-04-16T12:05:40.493Z,100662.44
2023-04-16T12:10:55.418Z,100651.63
2023-04-16T12:15:57.399Z,100638.84
2023-04-16T12:20:59.309Z,100643.16
2023-04-16T12:26:07.528Z,100635.91
2023-04-16T12:31:09.525Z,100633.66
2023-04-16T12:36:20.437Z,100628.81
2023-04-16T12:41:22.403Z,100620.47
2023-04-16T12:46:24.409Z,100615.72
2023-04-16T12:51:26.517Z,100612.13
2023-04-16T12:56:28.454Z,100611.03
2023-04-16T13:01:30.448Z,100599.47
2023-04-16T13:06:32.448Z,100597.56
2023-04-16T13:11:34.297Z,100588.53
2023-04-16T13:16:36.439Z,100581.13
2023-04-16T13:21:38.343Z,100580.50
2023-04-16T13:26:40.288Z,100580.47
2023-04-16T13:31:42.329Z,100568.50
2023-04-16T13:36:44.392Z,100570.72
2023-04-16T13:41:46.370Z,100555.63
2023-04-16T13:46:48.357Z,100562.44
2023-04-16T13:51:50.264Z,100558.75
2023-04-16T13:56:52.139Z,100556.53
2023-04-16T14:01:54.221Z,100544.66
2023-04-16T14:06:56.202Z,100548.59
2023-04-16T14:11:58.122Z,100550.84
2023-04-16T14:17:00.112Z,100544.34
2023-04-16T14:22:01.996Z,100549.41
2023-04-16T14:27:04.061Z,100551.84
2023-04-16T14:32:06.322Z,100545.84
2023-04-16T14:37:08.376Z,100536.84
2023-04-16T14:42:10.315Z,100541.13
2023-04-16T14:47:12.301Z,100541.38
2023-04-16T14:52:14.251Z,100532.44
2023-04-16T14:57:16.171Z,100533.75
2023-04-16T15:02:18.195Z,100527.97
2023-04-16T15:07:20.196Z,100524.38
2023-04-16T15:12:22.315Z,100516.22
2023-04-16T15:17:24.254Z,100525.41
2023-04-16T15:22:26.234Z,100525.44
2023-04-16T15:27:28.198Z,100530.19
2023-04-16T15:32:30.918Z,100525.63
2023-04-16T15:37:32.794Z,100529.34
2023-04-16T15:42:34.740Z,100527.00
2023-04-16T15:47:37.579Z,100524.50
2023-04-16T15:52:40.988Z,100524.69
2023-04-16T15:57:42.990Z,100528.59
2023-04-16T16:02:45.662Z,100528.69
2023-04-16T16:07:48.072Z,100521.13
2023-04-16T16:12:49.934Z,100524.00
2023-04-16T16:17:51.876Z,100528.66
2023-04-16T16:22:53.946Z,100526.13
2023-04-16T16:27:55.893Z,100522.59
2023-04-16T16:32:57.928Z,100532.38
2023-04-16T16:37:59.984Z,100528.84
2023-04-16T16:43:01.936Z,100528.09
2023-04-16T16:48:04.134Z,100530.06
2023-04-16T16:53:05.990Z,100529.28
2023-04-16T16:58:07.815Z,100525.91
2023-04-16T17:03:10.005Z,100525.22
2023-04-16T17:08:12.154Z,100531.44
2023-04-16T17:13:14.048Z,100525.41
2023-04-16T17:18:16.013Z,100534.25
2023-04-16T17:23:17.932Z,100526.50
2023-04-16T17:28:20.593Z,100533.50
2023-04-16T17:33:22.808Z,100534.50
2023-04-16T17:38:24.698Z,100535.19
2023-04-16T17:43:28.092Z,100528.09
2023-04-16T17:48:30.087Z,100534.25
2023-04-16T17:53:31.992Z,100525.50
2023-04-16T17:58:33.826Z,100521.22
2023-04-16T18:03:36.936Z,100520.22
2023-04-16T18:08:39.069Z,100522.88
2023-04-16T18:13:41.068Z,100517.56
2023-04-16T18:18:43.916Z,100521.84
2023-04-16T18:23:45.887Z,100519.13
2023-04-16T18:28:47.982Z,100515.63
2023-04-16T18:33:57.549Z,100511.19
2023-04-16T18:39:02.416Z,100503.28
2023-04-16T18:44:04.559Z,100502.31
2023-04-16T18:49:06.524Z,100504.09
2023-04-16T18:54:08.390Z,100505.81
2023-04-16T18:59:10.658Z,100502.34
2023-04-16T19:04:12.854Z,100495.31
2023-04-16T19:09:15.264Z,100498.84
2023-04-16T19:14:17.315Z,100492.88
2023-04-16T19:19:19.235Z,100489.41
2023-04-16T19:24:21.070Z,100490.31
2023-04-16T19:29:23.109Z,100496.47
2023-04-16T19:34:25.089Z,100495.66
2023-04-16T19:39:27.139Z,100502.75
2023-04-16T19:44:29.186Z,100491.28
2023-04-16T19:49:33.100Z,100495.84
2023-04-16T19:54:36.144Z,100501.22
2023-04-16T19:59:38.351Z,100499.63
2023-04-16T20:04:40.315Z,100507.59
2023-04-16T20:09:42.307Z,100501.50
2023-04-16T20:14:44.167Z,100500.69
2023-04-16T20:19:46.100Z,100499.84
2023-04-16T20:24:48.326Z,100501.69
2023-04-16T20:29:50.351Z,100504.25
2023-04-16T20:34:52.360Z,100506.84
2023-04-16T20:39:54.326Z,100499.84
2023-04-16T20:44:56.636Z,100495.50
2023-04-16T20:49:58.768Z,100493.78
2023-04-16T20:55:00.623Z,100492.03
2023-04-16T21:00:02.717Z,100482.38
2023-04-16T21:05:07.002Z,100486.78
2023-04-16T21:10:09.688Z,100488.53
2023-04-16T21:15:12.020Z,100485.91
2023-04-16T21:20:14.072Z,100487.69
2023-04-16T21:25:16.130Z,100484.22
2023-04-16T21:30:18.277Z,100493.03
2023-04-16T21:35:20.250Z,100490.41
2023-04-16T21:40:22.252Z,100496.69
2023-04-16T21:45:24.177Z,100503.72
2023-04-16T21:50:26.105Z,100500.22
2023-04-16T21:55:28.053Z,100499.44
2023-04-16T22:00:30.060Z,100501.28
2023-04-16T22:05:32.047Z,100501.34
2023-04-16T22:10:33.977Z,100500.53
2023-04-16T22:15:35.913Z,100502.34
2023-04-16T22:20:37.779Z,100505.06
2023-04-16T22:25:39.940Z,100505.09
2023-04-16T22:30:41.866Z,100504.22
2023-04-16T22:35:43.769Z,100501.66
2023-04-16T22:40:47.682Z,100501.72
2023-04-16T22:45:49.665Z,100505.28
2023-04-16T22:50:51.532Z,100501.78
2023-04-16T22:55:53.528Z,100500.94
2023-04-16T23:00:55.445Z,100505.28
2023-04-16T23:05:57.510Z,100493.81
2023-04-16T23:10:59.479Z,100498.22
2023-04-16T23:16:01.486Z,100500.03
2023-04-16T23:21:03.464Z,100497.44
2023-04-16T23:26:05.374Z,100492.25
2023-04-16T23:31:07.622Z,100489.72
2023-04-16T23:36:10.115Z,100488.84
2023-04-16T23:41:12.068Z,100482.78
2023-04-16T23:46:14.044Z,100479.34
2023-04-16T23:51:16.027Z,100494.34
2023-04-16T23:56:17.887Z,100485.66
